Time;durP1;ratioP1;P1;durP2;ratioP2;P2;SDS_P1;SDS_P2;PMS_P1;PMS_P2;Temp;Humidity;BMP_temperature;BMP_pressure;BME280_temperature;BME280_humidity;BME280_pressure;Samples;Min_cycle;Max_cycle;Signal;HPM_P1;HPM_P2
2023/12/02 00:01:38;;;;;;;30.93;16.60;;;-1.20;99.90;;;;;;5040978;28;20203;-87
2023/12/02 00:04:04;;;;;;;25.50;15.87;;;-1.20;99.90;;;;;;5041258;28;20898;-85
2023/12/02 00:06:29;;;;;;;22.53;13.93;;;-1.10;99.90;;;;;;5040621;28;20207;-85
2023/12/02 00:08:55;;;;;;;23.80;14.90;;;-1.20;99.90;;;;;;5039100;28;20211;-85
2023/12/02 00:11:20;;;;;;;24.40;14.53;;;-1.10;99.90;;;;;;5022168;28;20645;-85
2023/12/02 00:13:46;;;;;;;25.33;15.70;;;-1.10;99.90;;;;;;5039091;28;20237;-86
2023/12/02 00:16:12;;;;;;;24.33;16.03;;;-1.10;99.90;;;;;;5023468;28;20268;-85
2023/12/02 00:18:38;;;;;;;21.73;13.37;;;-0.20;99.90;;;;;;5023175;28;20522;-85
2023/12/02 00:21:03;;;;;;;22.97;14.77;;;-1.10;99.90;;;;;;5023494;28;20185;-87
2023/12/02 00:23:29;;;;;;;19.77;13.10;;;-1.10;99.90;;;;;;5023869;28;20179;-84
2023/12/02 00:25:54;;;;;;;24.67;14.53;;;-1.20;99.90;;;;;;5040621;28;20183;-85
2023/12/02 00:28:20;;;;;;;22.80;14.40;;;-1.10;99.90;;;;;;5041158;28;20178;-88
2023/12/02 00:30:46;;;;;;;24.80;14.23;;;-1.20;99.90;;;;;;5040947;28;20190;-86
2023/12/02 00:33:12;;;;;;;22.33;14.27;;;-1.10;99.90;;;;;;5040799;28;20188;-84
2023/12/02 00:35:38;;;;;;;24.07;14.50;;;-1.10;99.90;;;;;;5040742;28;20203;-86
2023/12/02 00:38:04;;;;;;;20.37;13.77;;;-1.10;99.90;;;;;;5040543;28;20441;-88
2023/12/02 00:40:29;;;;;;;20.67;12.57;;;-1.10;99.90;;;;;;5021743;28;20235;-85
2023/12/02 00:42:55;;;;;;;20.63;14.37;;;-0.30;99.90;;;;;;5021847;28;20194;-86
2023/12/02 00:45:21;;;;;;;24.33;14.27;;;-1.10;99.90;;;;;;5021516;28;20216;-88
2023/12/02 00:47:46;;;;;;;20.37;13.00;;;-1.10;99.90;;;;;;5020944;28;20685;-89
2023/12/02 00:50:12;;;;;;;21.50;12.00;;;-1.10;99.90;;;;;;5021080;28;20206;-87
2023/12/02 00:52:37;;;;;;;20.57;12.23;;;-1.20;99.90;;;;;;5021685;28;20194;-84
2023/12/02 00:55:04;;;;;;;21.20;13.00;;;-1.10;99.90;;;;;;5020750;28;20313;-87
2023/12/02 00:57:29;;;;;;;21.40;14.33;;;-1.10;99.90;;;;;;5023366;28;20183;-87
2023/12/02 00:59:55;;;;;;;22.93;15.20;;;-1.10;99.90;;;;;;5023924;28;20502;-85
2023/12/02 01:02:20;;;;;;;23.40;15.30;;;-1.10;99.90;;;;;;5039594;28;20182;-87
2023/12/02 01:04:46;;;;;;;21.23;13.67;;;-1.10;99.90;;;;;;5039655;28;20188;-87
2023/12/02 01:07:12;;;;;;;21.33;14.10;;;-1.10;99.90;;;;;;5022677;28;20186;-88
2023/12/02 01:09:37;;;;;;;22.87;13.00;;;-1.10;99.90;;;;;;5022339;28;20207;-88
2023/12/02 01:12:03;;;;;;;20.97;14.07;;;-1.10;99.90;;;;;;5040366;28;20197;-86
2023/12/02 01:14:29;;;;;;;23.50;14.63;;;-1.10;99.90;;;;;;5040730;28;20671;-85
2023/12/02 01:16:54;;;;;;;21.53;14.63;;;-1.00;99.90;;;;;;5021834;28;20230;-84
2023/12/02 01:19:21;;;;;;;20.73;13.30;;;-1.00;99.90;;;;;;5040996;28;20221;-87
2023/12/02 01:21:46;;;;;;;20.90;13.50;;;-1.10;99.90;;;;;;5026461;28;20202;-87
2023/12/02 01:24:13;;;;;;;21.17;13.47;;;-1.10;99.90;;;;;;5043631;28;20414;-86
2023/12/02 01:26:39;;;;;;;19.37;12.63;;;-1.00;99.90;;;;;;5043074;28;20189;-86
2023/12/02 01:29:04;;;;;;;18.53;13.00;;;-1.00;99.90;;;;;;5025274;28;20501;-85
2023/12/02 01:31:30;;;;;;;19.87;13.30;;;-0.50;99.90;;;;;;5025272;28;20187;-84
2023/12/02 01:33:56;;;;;;;19.57;12.37;;;-1.10;99.90;;;;;;5043581;28;20266;-86
2023/12/02 01:36:21;;;;;;;21.27;11.93;;;-1.10;99.90;;;;;;5008427;28;20209;-85
2023/12/02 01:38:47;;;;;;;20.40;12.23;;;-1.10;99.90;;;;;;5025232;28;20242;-85
2023/12/02 01:41:12;;;;;;;17.30;10.90;;;-1.10;99.90;;;;;;5024693;28;20180;-85
2023/12/02 01:43:39;;;;;;;18.63;11.80;;;-1.10;99.90;;;;;;5025513;28;20187;-87
2023/12/02 01:46:05;;;;;;;19.63;12.77;;;-1.10;99.90;;;;;;5044263;28;20176;-86
2023/12/02 01:48:34;;;;;;;18.83;12.23;;;-1.00;99.90;;;;;;5024967;28;20489;-84
2023/12/02 01:51:00;;;;;;;20.70;12.87;;;-1.00;99.90;;;;;;5024269;28;20416;-83
2023/12/02 01:53:26;;;;;;;20.20;13.67;;;-1.00;99.90;;;;;;5024781;28;20928;-85
2023/12/02 01:55:52;;;;;;;19.67;12.63;;;-1.00;99.90;;;;;;5025137;28;20463;-85
2023/12/02 01:58:19;;;;;;;20.90;13.47;;;-1.00;99.90;;;;;;5042844;28;20917;-84
2023/12/02 02:00:45;;;;;;;22.83;14.10;;;-1.00;99.90;;;;;;5042851;28;20174;-85
2023/12/02 02:03:11;;;;;;;20.70;13.30;;;-1.00;99.90;;;;;;5024889;28;20507;-86
2023/12/02 02:05:37;;;;;;;25.63;16.47;;;-1.00;99.90;;;;;;5042102;28;20504;-84
2023/12/02 02:08:02;;;;;;;25.47;14.43;;;-1.00;99.90;;;;;;5025097;28;20181;-85
2023/12/02 02:10:28;;;;;;;20.23;12.97;;;-0.80;99.90;;;;;;5025045;28;20247;-87
2023/12/02 02:12:54;;;;;;;24.07;16.93;;;-1.00;99.90;;;;;;5024158;28;20222;-87
2023/12/02 02:15:20;;;;;;;22.00;15.33;;;-1.10;99.90;;;;;;5024649;28;20219;-88
2023/12/02 02:17:45;;;;;;;22.57;14.83;;;-1.00;99.90;;;;;;5024579;28;20196;-86
2023/12/02 02:20:13;;;;;;;25.90;17.53;;;-1.10;99.90;;;;;;5044450;28;20301;-86
2023/12/02 02:22:38;;;;;;;29.17;16.40;;;-1.10;99.90;;;;;;5028537;28;20549;-87
2023/12/02 02:25:04;;;;;;;25.63;16.63;;;-1.10;99.90;;;;;;5045232;28;20416;-86
2023/12/02 02:27:31;;;;;;;27.37;15.73;;;-1.10;99.90;;;;;;5028885;28;20193;-88
2023/12/02 02:29:57;;;;;;;19.83;13.60;;;-1.10;99.90;;;;;;5027226;28;20208;-87
2023/12/02 02:32:23;;;;;;;23.70;14.77;;;-1.10;99.90;;;;;;5044644;28;20979;-87
2023/12/02 02:34:48;;;;;;;22.80;13.50;;;-1.20;99.90;;;;;;5027884;28;20209;-86
2023/12/02 02:37:14;;;;;;;27.07;15.93;;;-0.10;99.90;;;;;;5046348;28;20191;-85
2023/12/02 02:39:39;;;;;;;26.90;16.57;;;-1.10;99.90;;;;;;5027185;28;20330;-84
2023/12/02 02:42:08;;;;;;;23.40;16.77;;;-1.10;99.90;;;;;;5028405;28;20183;-87
2023/12/02 02:44:37;;;;;;;24.83;15.37;;;-1.10;99.90;;;;;;5028365;28;20210;-85
2023/12/02 02:47:03;;;;;;;23.57;14.87;;;-0.70;99.90;;;;;;5027740;28;20437;-84
2023/12/02 02:49:29;;;;;;;23.93;14.90;;;0.50;99.90;;;;;;5028222;28;20474;-87
2023/12/02 02:51:55;;;;;;;25.33;15.47;;;-1.10;99.90;;;;;;5028768;28;20428;-85
2023/12/02 02:54:20;;;;;;;22.87;14.50;;;-1.10;99.90;;;;;;5045836;28;20206;-87
2023/12/02 02:56:46;;;;;;;23.93;14.23;;;-1.10;99.90;;;;;;5045897;28;20179;-87
2023/12/02 02:59:12;;;;;;;24.97;15.57;;;-1.10;99.90;;;;;;5028699;28;20554;-84
2023/12/02 03:01:39;;;;;;;25.73;15.43;;;-1.10;99.90;;;;;;5029038;28;20688;-85
2023/12/02 03:04:05;;;;;;;22.10;14.07;;;-1.10;99.90;;;;;;5028684;28;20191;-86
2023/12/02 03:06:30;;;;;;;21.00;13.83;;;-1.10;99.90;;;;;;5046200;28;20417;-87
2023/12/02 03:08:56;;;;;;;23.53;14.77;;;-1.10;99.90;;;;;;5012848;28;20221;-86
2023/12/02 03:11:22;;;;;;;23.50;12.93;;;-1.20;99.90;;;;;;5042966;28;20164;-82
2023/12/02 03:13:47;;;;;;;23.93;14.00;;;-1.10;99.90;;;;;;5042944;28;20176;-83
2023/12/02 03:16:13;;;;;;;21.90;13.03;;;-1.10;99.90;;;;;;5043096;28;20180;-85
2023/12/02 03:18:39;;;;;;;20.57;12.50;;;-0.10;99.90;;;;;;5059757;28;20215;-82
2023/12/02 03:21:05;;;;;;;18.70;12.50;;;-1.10;99.90;;;;;;5026444;28;20497;-84
2023/12/02 03:23:30;;;;;;;20.43;11.33;;;-1.10;99.90;;;;;;5042767;28;20194;-84
2023/12/02 03:26:00;;;;;;;18.77;12.13;;;-1.10;99.90;;;;;;5059647;28;20244;-84
2023/12/02 03:28:26;;;;;;;21.43;14.03;;;-1.10;99.90;;;;;;5036639;28;20208;-85
2023/12/02 03:30:51;;;;;;;20.03;12.30;;;-1.10;99.90;;;;;;5040709;28;20482;-86
2023/12/02 03:33:17;;;;;;;25.93;14.57;;;-1.10;99.90;;;;;;5047255;28;20190;-88
2023/12/02 03:35:42;;;;;;;19.83;12.50;;;-1.10;99.90;;;;;;5024046;28;20240;-83
2023/12/02 03:38:11;;;;;;;19.70;12.57;;;-1.10;99.90;;;;;;5024409;28;20270;-85
2023/12/02 03:40:37;;;;;;;20.80;13.03;;;2.00;99.90;;;;;;5042194;28;20182;-87
2023/12/02 03:43:03;;;;;;;17.43;10.73;;;-1.10;99.90;;;;;;5023139;28;20426;-83
2023/12/02 03:45:29;;;;;;;19.83;12.43;;;0.20;99.90;;;;;;5042023;28;20426;-86
2023/12/02 03:47:55;;;;;;;19.50;12.27;;;-1.10;99.90;;;;;;5024556;28;20472;-85
2023/12/02 03:50:20;;;;;;;19.90;12.53;;;-1.10;99.90;;;;;;5023580;28;20746;-86
2023/12/02 03:52:46;;;;;;;20.67;10.63;;;-1.10;99.90;;;;;;5040864;28;20666;-82
2023/12/02 03:55:11;;;;;;;20.80;11.90;;;-1.10;99.90;;;;;;5023342;28;20295;-86
2023/12/02 03:57:37;;;;;;;18.10;11.87;;;-1.10;99.90;;;;;;5023824;28;20281;-85
2023/12/02 04:00:10;;;;;;;19.60;12.47;;;-1.10;99.90;;;;;;5021829;28;20221;-89
2023/12/02 04:02:40;;;;;;;18.63;12.20;;;-1.10;99.90;;;;;;5023081;28;20178;-88
2023/12/02 04:05:09;;;;;;;17.37;11.30;;;-1.10;99.90;;;;;;5040485;28;20420;-88
2023/12/02 04:07:36;;;;;;;19.43;12.47;;;-1.20;99.90;;;;;;5023472;28;20448;-85
2023/12/02 04:10:02;;;;;;;15.77;11.50;;;-1.10;99.90;;;;;;5023121;28;20435;-88
2023/12/02 04:12:29;;;;;;;19.27;11.47;;;-1.10;99.90;;;;;;5022422;28;20801;-86
2023/12/02 04:14:55;;;;;;;17.50;11.70;;;-1.10;99.90;;;;;;5040532;28;20442;-88
2023/12/02 04:17:21;;;;;;;17.73;11.97;;;-1.10;99.90;;;;;;5022344;28;20419;-88
2023/12/02 04:19:47;;;;;;;16.17;10.30;;;-1.20;99.90;;;;;;5023414;28;20221;-87
2023/12/02 04:22:13;;;;;;;16.37;10.57;;;-1.20;99.90;;;;;;5021954;28;20182;-89
2023/12/02 04:24:39;;;;;;;16.43;9.73;;;-1.10;99.90;;;;;;5020447;28;20220;-87
2023/12/02 04:27:05;;;;;;;15.97;10.47;;;-1.20;99.90;;;;;;5038958;28;20205;-85
2023/12/02 04:29:31;;;;;;;17.07;10.63;;;-1.20;99.90;;;;;;5023855;28;20448;-85
2023/12/02 04:31:57;;;;;;;17.60;11.43;;;-1.20;99.90;;;;;;5022921;28;20956;-86
2023/12/02 04:34:23;;;;;;;15.47;10.53;;;-1.20;99.90;;;;;;5023183;28;20458;-86
2023/12/02 04:36:48;;;;;;;15.43;10.13;;;-1.20;99.90;;;;;;5040972;28;20184;-87
2023/12/02 04:39:14;;;;;;;15.57;10.03;;;-1.20;99.90;;;;;;5022936;28;20229;-84
2023/12/02 04:41:40;;;;;;;16.23;10.07;;;-1.20;99.90;;;;;;5023123;28;20199;-83
2023/12/02 04:44:06;;;;;;;16.03;9.67;;;-0.10;99.90;;;;;;5023363;28;20429;-85
2023/12/02 04:46:32;;;;;;;12.80;8.50;;;-1.20;99.90;;;;;;5022416;28;20250;-86
2023/12/02 04:48:57;;;;;;;15.17;9.77;;;-1.10;99.90;;;;;;5040707;28;20460;-84
2023/12/02 04:51:23;;;;;;;13.67;9.20;;;-1.20;99.90;;;;;;5038583;28;20199;-84
2023/12/02 04:53:48;;;;;;;13.87;8.97;;;-1.20;99.90;;;;;;5039927;28;20197;-85
2023/12/02 04:56:14;;;;;;;13.47;8.03;;;-1.20;99.90;;;;;;5042715;28;20185;-85
2023/12/02 04:58:40;;;;;;;12.37;8.87;;;-1.20;99.90;;;;;;5025883;28;20244;-87
2023/12/02 05:01:05;;;;;;;15.33;9.47;;;-1.20;99.90;;;;;;5043965;28;20188;-89
2023/12/02 05:03:31;;;;;;;11.93;7.90;;;-1.20;99.90;;;;;;5044328;28;20637;-87
2023/12/02 05:05:57;;;;;;;13.57;9.10;;;-1.30;99.90;;;;;;5042359;28;20181;-87
2023/12/02 05:08:22;;;;;;;16.03;9.07;;;-1.20;99.90;;;;;;5041909;28;20187;-82
2023/12/02 05:10:48;;;;;;;11.30;8.50;;;-1.00;99.90;;;;;;5043884;28;20236;-86
2023/12/02 05:13:13;;;;;;;12.03;8.20;;;-1.30;99.90;;;;;;5026427;28;20672;-89
2023/12/02 05:15:39;;;;;;;11.77;7.97;;;-1.30;99.90;;;;;;5042615;28;20208;-88
2023/12/02 05:18:05;;;;;;;12.67;8.13;;;-1.20;99.90;;;;;;5026515;28;20181;-85
2023/12/02 05:20:31;;;;;;;11.77;8.30;;;-1.20;99.90;;;;;;5044092;28;20424;-86
2023/12/02 05:22:56;;;;;;;12.33;8.33;;;-1.20;99.90;;;;;;5042738;28;20254;-86
2023/12/02 05:25:22;;;;;;;19.47;8.83;;;-1.20;99.90;;;;;;5043551;28;20558;-87
2023/12/02 05:27:48;;;;;;;12.93;8.50;;;-1.20;99.90;;;;;;5041619;28;20432;-88
2023/12/02 05:30:14;;;;;;;12.20;8.90;;;-1.20;99.90;;;;;;5041908;28;20279;-87
2023/12/02 05:32:40;;;;;;;13.17;8.57;;;-1.20;99.90;;;;;;5041136;28;20178;-87
2023/12/02 05:35:10;;;;;;;18.60;10.73;;;-1.20;99.90;;;;;;5025875;28;20461;-90
2023/12/02 05:37:36;;;;;;;11.77;8.70;;;-1.20;99.90;;;;;;5026142;28;20177;-89
2023/12/02 05:40:03;;;;;;;13.73;9.43;;;-1.20;99.90;;;;;;5042304;28;20452;-89
2023/12/02 05:42:29;;;;;;;12.53;8.27;;;-1.20;99.90;;;;;;5016547;28;20185;-86
2023/12/02 05:44:54;;;;;;;11.83;8.00;;;-1.20;99.90;;;;;;5042405;28;20411;-89
2023/12/02 05:47:20;;;;;;;12.97;8.47;;;-1.30;99.90;;;;;;5042770;28;20177;-88
2023/12/02 05:49:46;;;;;;;12.10;8.23;;;-1.20;99.90;;;;;;5041530;28;20264;-87
2023/12/02 05:52:11;;;;;;;11.53;7.73;;;-1.20;99.90;;;;;;5042141;28;20181;-86
2023/12/02 05:54:38;;;;;;;11.37;8.20;;;-1.20;99.90;;;;;;5044078;28;20271;-87
2023/12/02 05:57:04;;;;;;;14.73;8.67;;;-1.40;99.90;;;;;;5041927;28;20423;-88
2023/12/02 05:59:29;;;;;;;12.23;8.37;;;-1.20;99.90;;;;;;5043599;28;20199;-87
2023/12/02 06:01:55;;;;;;;12.80;8.43;;;-1.20;99.90;;;;;;5026183;28;20515;-86
2023/12/02 06:04:21;;;;;;;12.10;8.47;;;-1.20;99.90;;;;;;5042399;28;20177;-85
2023/12/02 06:06:47;;;;;;;14.13;9.57;;;-1.20;99.90;;;;;;5041174;28;20188;-90
2023/12/02 06:09:14;;;;;;;17.47;10.33;;;-1.20;99.90;;;;;;5043441;28;20210;-86
2023/12/02 06:11:40;;;;;;;15.73;9.60;;;-1.20;99.90;;;;;;5024983;28;20424;-84
2023/12/02 06:14:06;;;;;;;15.60;10.77;;;-1.20;99.90;;;;;;5024623;28;20841;-84
2023/12/02 06:16:31;;;;;;;17.13;11.13;;;-1.20;99.90;;;;;;5026331;28;20208;-85
2023/12/02 06:18:57;;;;;;;15.87;10.67;;;-1.20;99.90;;;;;;5025314;28;20218;-84
2023/12/02 06:21:22;;;;;;;14.97;11.37;;;-1.20;99.90;;;;;;5025723;28;20190;-84
2023/12/02 06:23:49;;;;;;;15.53;10.40;;;-1.20;99.90;;;;;;5025583;28;20201;-85
2023/12/02 06:26:15;;;;;;;15.07;10.07;;;-1.20;99.90;;;;;;5042893;28;20180;-85
2023/12/02 06:28:41;;;;;;;16.13;10.60;;;-1.20;99.90;;;;;;5026971;28;20450;-84
2023/12/02 06:31:13;;;;;;;16.90;10.87;;;-1.20;99.90;;;;;;5043369;28;20500;-86
2023/12/02 06:33:39;;;;;;;15.20;10.97;;;-1.20;99.90;;;;;;5025382;28;20177;-83
2023/12/02 06:36:05;;;;;;;16.00;11.03;;;-1.30;99.90;;;;;;5025911;28;20466;-85
2023/12/02 06:38:30;;;;;;;18.97;11.37;;;-1.20;99.90;;;;;;5024339;28;20203;-86
2023/12/02 06:40:56;;;;;;;18.93;11.10;;;-1.20;99.90;;;;;;5043246;28;20190;-85
2023/12/02 06:43:22;;;;;;;16.03;10.73;;;-1.20;99.90;;;;;;5024896;28;20177;-85
2023/12/02 06:45:48;;;;;;;14.23;10.80;;;-1.20;99.90;;;;;;5025729;28;20213;-87
2023/12/02 06:48:14;;;;;;;16.77;9.67;;;-1.30;99.90;;;;;;5025184;28;20276;-86
2023/12/02 06:50:39;;;;;;;15.63;10.33;;;-1.30;99.90;;;;;;5041506;28;20458;-87
2023/12/02 06:53:06;;;;;;;18.80;12.90;;;-1.30;99.90;;;;;;5025228;28;20208;-86
2023/12/02 06:55:31;;;;;;;17.43;11.83;;;-1.30;99.90;;;;;;5042453;28;20208;-86
2023/12/02 06:58:00;;;;;;;14.17;10.27;;;-1.30;99.90;;;;;;5024891;28;20789;-88
2023/12/02 07:00:26;;;;;;;15.93;10.67;;;-1.20;99.90;;;;;;5008395;28;20272;-87
2023/12/02 07:02:53;;;;;;;16.53;9.73;;;-1.30;99.90;;;;;;5025327;28;20457;-85
2023/12/02 07:05:18;;;;;;;15.67;10.90;;;-1.30;99.90;;;;;;5026012;28;20189;-86
2023/12/02 07:07:44;;;;;;;15.77;10.40;;;-1.30;99.90;;;;;;5043024;28;20752;-84
2023/12/02 07:10:09;;;;;;;16.53;11.67;;;-1.30;99.90;;;;;;5024957;28;20208;-85
2023/12/02 07:12:36;;;;;;;15.20;10.80;;;-1.30;99.90;;;;;;5025016;28;20217;-87
2023/12/02 07:15:07;;;;;;;14.87;10.37;;;-0.90;99.90;;;;;;5042014;28;20201;-88
2023/12/02 07:17:33;;;;;;;13.50;9.67;;;-1.30;99.90;;;;;;5024879;28;20424;-89
2023/12/02 07:19:59;;;;;;;14.80;10.00;;;-1.30;99.90;;;;;;5024119;28;20569;-85
2023/12/02 07:22:25;;;;;;;17.93;10.63;;;-1.30;99.90;;;;;;5041205;28;20178;-86
2023/12/02 07:24:51;;;;;;;15.93;9.50;;;-1.30;99.90;;;;;;5024158;28;20439;-86
2023/12/02 07:27:16;;;;;;;14.87;10.83;;;-1.30;99.90;;;;;;5024242;28;20267;-87
2023/12/02 07:29:42;;;;;;;15.00;9.33;;;-1.30;99.90;;;;;;5006855;28;20679;-85
2023/12/02 07:32:08;;;;;;;19.70;12.80;;;-1.30;99.90;;;;;;5041738;28;20182;-84
2023/12/02 07:34:33;;;;;;;15.57;11.80;;;-1.30;99.90;;;;;;5023767;28;20201;-87
2023/12/02 07:36:59;;;;;;;19.10;11.93;;;-1.40;99.90;;;;;;5040955;28;20584;-88
2023/12/02 07:39:24;;;;;;;14.80;10.00;;;-1.40;99.90;;;;;;5023040;28;20744;-88
2023/12/02 07:41:50;;;;;;;15.70;9.83;;;-1.40;99.90;;;;;;5040971;28;20174;-86
2023/12/02 07:44:17;;;;;;;14.80;10.77;;;-0.90;99.90;;;;;;5040694;28;20170;-88
2023/12/02 07:46:42;;;;;;;19.07;11.40;;;-1.40;99.90;;;;;;5040537;28;20179;-89
2023/12/02 07:49:08;;;;;;;14.23;10.30;;;-1.30;99.90;;;;;;5022185;28;20476;-87
2023/12/02 07:51:35;;;;;;;12.40;9.43;;;-1.30;99.90;;;;;;5040245;28;20185;-83
2023/12/02 07:54:01;;;;;;;14.50;10.17;;;-1.30;99.90;;;;;;5039220;28;20460;-86
2023/12/02 07:56:26;;;;;;;14.33;9.03;;;-1.30;99.90;;;;;;5039950;28;20420;-89
2023/12/02 07:58:53;;;;;;;15.37;9.67;;;-1.30;99.90;;;;;;5022189;28;20210;-86
2023/12/02 08:01:19;;;;;;;13.67;9.10;;;-1.30;99.90;;;;;;5024285;28;20187;-86
2023/12/02 08:03:44;;;;;;;13.67;8.50;;;-1.40;99.90;;;;;;5026951;28;20422;-86
2023/12/02 08:06:10;;;;;;;11.43;8.10;;;-1.30;99.90;;;;;;5022617;28;20251;-86
2023/12/02 08:08:36;;;;;;;12.70;8.47;;;-1.30;99.90;;;;;;5038843;28;20230;-85
2023/12/02 08:11:02;;;;;;;13.10;9.77;;;-1.40;99.90;;;;;;5039497;28;20555;-87
2023/12/02 08:13:27;;;;;;;15.93;10.90;;;-1.40;99.90;;;;;;5038090;28;20189;-85
2023/12/02 08:15:53;;;;;;;15.23;10.60;;;-1.40;99.90;;;;;;5039491;28;20482;-86
2023/12/02 08:18:21;;;;;;;14.13;10.23;;;-1.40;99.90;;;;;;5020993;28;20194;-84
2023/12/02 08:20:46;;;;;;;17.93;11.03;;;-1.40;99.90;;;;;;5021389;28;20186;-88
2023/12/02 08:23:12;;;;;;;15.83;10.47;;;-1.50;99.90;;;;;;5022317;28;20511;-84
2023/12/02 08:25:38;;;;;;;15.53;10.20;;;-1.50;99.90;;;;;;5039516;28;20198;-85
2023/12/02 08:28:04;;;;;;;19.47;11.63;;;-1.50;99.90;;;;;;5021241;28;20465;-85
2023/12/02 08:30:29;;;;;;;15.73;10.87;;;-1.50;99.90;;;;;;5041386;28;20271;-87
2023/12/02 08:32:55;;;;;;;15.83;10.57;;;-1.60;99.90;;;;;;5041903;28;20220;-86
2023/12/02 08:35:21;;;;;;;14.60;9.90;;;-1.60;99.90;;;;;;5042329;28;20212;-86
2023/12/02 08:37:47;;;;;;;19.70;12.73;;;-1.60;99.90;;;;;;5042624;28;20216;-85
2023/12/02 08:40:12;;;;;;;18.73;12.23;;;-1.60;99.90;;;;;;5025879;28;20647;-88
2023/12/02 08:42:38;;;;;;;16.77;11.90;;;-1.70;99.90;;;;;;5010858;28;20252;-88
2023/12/02 08:45:04;;;;;;;17.83;12.17;;;-1.60;99.90;;;;;;5027767;28;20190;-90
2023/12/02 08:47:31;;;;;;;16.93;11.27;;;-1.60;99.90;;;;;;5028172;28;20186;-90
2023/12/02 08:49:56;;;;;;;16.07;11.27;;;-1.60;99.90;;;;;;5027463;28;20519;-89
2023/12/02 08:52:22;;;;;;;17.97;12.13;;;-0.70;99.90;;;;;;5026841;28;20419;-89
2023/12/02 08:54:48;;;;;;;17.93;11.47;;;-1.90;99.90;;;;;;5026041;28;20204;-89
2023/12/02 08:57:13;;;;;;;16.23;10.70;;;-1.60;99.90;;;;;;5010725;28;20189;-89
2023/12/02 08:59:39;;;;;;;15.07;10.37;;;-1.70;99.90;;;;;;5026370;28;20199;-87
2023/12/02 09:02:06;;;;;;;16.90;11.07;;;-1.60;99.90;;;;;;5025577;28;20264;-89
2023/12/02 09:04:32;;;;;;;15.93;10.97;;;-1.60;99.90;;;;;;5026369;28;20711;-86
2023/12/02 09:07:00;;;;;;;17.17;11.53;;;-1.60;99.90;;;;;;5024033;28;20420;-87
2023/12/02 09:09:25;;;;;;;17.97;11.43;;;-0.30;99.90;;;;;;5026537;28;20226;-89
2023/12/02 09:11:51;;;;;;;16.17;10.60;;;0.30;99.90;;;;;;5027482;28;20417;-86
2023/12/02 09:14:17;;;;;;;19.17;11.40;;;0.50;99.90;;;;;;5026758;28;20216;-89
2023/12/02 09:16:47;;;;;;;15.53;10.60;;;0.00;99.90;;;;;;5026859;28;20180;-86
2023/12/02 09:19:54;;;;;;;17.67;11.07;;;0.40;99.90;;;;;;5026182;28;20236;-88
2023/12/02 09:22:48;;;;;;;15.93;10.57;;;-1.60;99.90;;;;;;5025911;28;20424;-86
2023/12/02 09:25:40;;;;;;;14.47;10.53;;;-1.50;99.90;;;;;;5025994;28;20427;-87
2023/12/02 09:28:06;;;;;;;17.50;11.37;;;-1.50;99.90;;;;;;5022508;28;20425;-89
2023/12/02 09:30:36;;;;;;;17.77;11.33;;;-0.20;99.90;;;;;;5025202;28;20439;-84
2023/12/02 09:33:06;;;;;;;19.37;11.13;;;-1.10;99.90;;;;;;5025956;28;20264;-89
2023/12/02 09:35:33;;;;;;;17.67;11.77;;;-0.90;99.90;;;;;;5025620;28;20813;-91
2023/12/02 09:38:00;;;;;;;18.17;11.87;;;-0.30;99.90;;;;;;5025808;28;20420;-88
2023/12/02 09:40:36;;;;;;;17.13;11.40;;;-1.30;99.90;;;;;;5023972;28;20444;-88
2023/12/02 09:43:25;;;;;;;18.77;12.10;;;-1.20;99.90;;;;;;5023803;28;20922;-90
2023/12/02 09:45:51;;;;;;;21.87;13.07;;;-1.20;99.90;;;;;;5024535;28;20480;-89
2023/12/02 09:48:23;;;;;;;19.47;12.60;;;-1.20;99.90;;;;;;5025497;28;20450;-88
2023/12/02 09:51:24;;;;;;;21.50;12.73;;;-1.10;99.90;;;;;;5024079;28;20169;-87
2023/12/02 09:54:16;;;;;;;18.43;11.53;;;-1.00;99.90;;;;;;5019606;28;20420;-88
2023/12/02 09:56:46;;;;;;;18.70;12.73;;;-1.00;99.90;;;;;;5013112;28;20421;-90
2023/12/02 10:00:15;;;;;;;18.23;12.00;;;-0.70;99.90;;;;;;5024200;28;20962;-89
2023/12/02 10:03:09;;;;;;;16.63;11.80;;;1.30;99.90;;;;;;4997182;28;20421;-90
2023/12/02 10:05:53;;;;;;;19.23;12.37;;;-1.00;99.90;;;;;;5031090;28;20428;-90
2023/12/02 10:08:54;;;;;;;17.47;11.47;;;-1.10;99.90;;;;;;5044036;28;20397;-86
2023/12/02 10:11:30;;;;;;;17.53;10.77;;;-1.00;99.90;;;;;;5044233;28;20407;-87
2023/12/02 10:14:00;;;;;;;17.50;12.17;;;-1.00;99.90;;;;;;5044033;28;20405;-85
2023/12/02 10:16:30;;;;;;;18.00;12.03;;;-1.00;99.90;;;;;;5044100;28;20408;-87
2023/12/02 10:18:59;;;;;;;18.30;11.80;;;-1.00;99.90;;;;;;5043802;28;20460;-90
2023/12/02 10:21:29;;;;;;;19.47;11.20;;;-0.90;99.90;;;;;;5043871;28;20409;-87
2023/12/02 10:24:05;;;;;;;19.37;11.43;;;-0.90;99.90;;;;;;5043944;28;20426;-86
2023/12/02 10:26:57;;;;;;;18.43;11.53;;;-0.90;99.90;;;;;;5043626;28;20409;-89
2023/12/02 10:29:41;;;;;;;15.90;10.53;;;-0.90;99.90;;;;;;5038364;28;20442;-92
2023/12/02 10:32:31;;;;;;;15.60;10.53;;;-0.10;99.90;;;;;;5007844;28;20406;-88
2023/12/02 10:35:39;;;;;;;17.23;10.80;;;-0.90;99.90;;;;;;5025334;28;20455;-89
2023/12/02 10:38:27;;;;;;;15.97;10.90;;;-0.80;99.90;;;;;;5014541;28;20414;-92
2023/12/02 10:41:20;;;;;;;16.17;11.07;;;-0.80;99.90;;;;;;5024076;28;20187;-91
2023/12/02 10:43:48;;;;;;;15.80;10.20;;;-0.80;99.90;;;;;;5019746;28;20502;-91
2023/12/02 10:46:16;;;;;;;18.07;10.47;;;-0.70;99.90;;;;;;5019145;28;20643;-91
2023/12/02 10:48:42;;;;;;;13.63;9.33;;;-0.80;99.90;;;;;;5018635;28;20695;-92
2023/12/02 10:51:13;;;;;;;14.77;10.77;;;-0.60;99.90;;;;;;5034928;28;20510;-93
2023/12/02 10:53:41;;;;;;;16.63;11.33;;;-0.60;99.90;;;;;;5019811;28;20421;-91
2023/12/02 10:56:16;;;;;;;22.83;11.80;;;-0.70;99.90;;;;;;5022212;28;20453;-90
2023/12/02 10:58:45;;;;;;;20.10;12.20;;;-0.50;99.90;;;;;;5024622;28;20442;-91
2023/12/02 11:01:18;;;;;;;16.60;11.27;;;1.40;99.90;;;;;;5024677;28;20195;-88
2023/12/02 11:04:04;;;;;;;16.70;10.77;;;0.60;99.90;;;;;;5024032;28;20438;-90
2023/12/02 11:06:37;;;;;;;17.23;11.07;;;-0.40;99.90;;;;;;5025012;28;20944;-88
2023/12/02 11:09:16;;;;;;;18.40;11.63;;;-0.30;99.90;;;;;;5008773;28;20473;-91
2023/12/02 11:11:45;;;;;;;17.03;11.13;;;-0.30;99.90;;;;;;5025433;28;20502;-90
2023/12/02 11:14:20;;;;;;;15.83;10.60;;;-0.30;99.90;;;;;;5024937;28;20192;-89
2023/12/02 11:17:41;;;;;;;17.17;10.53;;;-0.30;99.90;;;;;;5025143;28;20941;-89
2023/12/02 11:20:22;;;;;;;18.77;12.47;;;-0.20;99.90;;;;;;5024386;28;20237;-89
2023/12/02 11:22:53;;;;;;;15.90;10.30;;;-0.10;99.90;;;;;;5022958;28;20169;-90
2023/12/02 11:25:26;;;;;;;18.63;12.30;;;-0.10;99.90;;;;;;5022638;28;20175;-91
2023/12/02 11:28:05;;;;;;;17.03;11.83;;;-0.10;99.90;;;;;;5024387;28;20412;-85
2023/12/02 11:30:46;;;;;;;18.77;11.93;;;0.00;99.90;;;;;;5025659;28;20301;-88
2023/12/02 11:33:47;;;;;;;19.60;10.97;;;0.10;99.90;;;;;;5024996;28;20651;-89
2023/12/02 11:36:21;;;;;;;18.20;11.30;;;0.20;99.90;;;;;;4981546;28;20694;-92
2023/12/02 11:39:42;;;;;;;17.93;10.87;;;0.20;99.90;;;;;;5024202;28;20686;-88
2023/12/02 11:42:20;;;;;;;17.30;11.70;;;0.30;99.90;;;;;;4941553;28;20195;-87
2023/12/02 11:45:11;;;;;;;17.00;10.27;;;0.30;99.90;;;;;;5023956;28;20636;-89
2023/12/02 11:48:02;;;;;;;17.03;11.03;;;0.30;99.90;;;;;;5024818;28;20177;-87
2023/12/02 11:50:59;;;;;;;16.50;11.10;;;1.30;99.90;;;;;;5023087;28;20679;-87
2023/12/02 11:53:48;;;;;;;16.50;11.40;;;0.40;99.90;;;;;;5016965;28;20187;-91
2023/12/02 11:56:17;;;;;;;18.23;11.57;;;0.50;99.90;;;;;;5022924;28;20366;-86
2023/12/02 11:59:06;;;;;;;18.00;12.07;;;0.50;99.90;;;;;;5023064;28;20196;-86
2023/12/02 12:01:43;;;;;;;19.77;11.70;;;0.60;99.90;;;;;;5023497;28;20176;-90
2023/12/02 12:04:38;;;;;;;20.57;12.93;;;0.60;99.90;;;;;;5022420;28;20648;-89
2023/12/02 12:07:04;;;;;;;22.70;12.87;;;0.70;99.90;;;;;;5022971;28;20196;-86
2023/12/02 12:09:37;;;;;;;19.37;13.63;;;1.40;99.90;;;;;;5022380;28;20684;-87
2023/12/02 12:12:07;;;;;;;22.43;13.90;;;0.80;99.90;;;;;;5024065;28;20169;-85
2023/12/02 12:14:36;;;;;;;22.77;13.30;;;0.20;99.90;;;;;;5023394;28;20739;-92
2023/12/02 12:17:02;;;;;;;19.80;13.27;;;3.10;99.90;;;;;;5023943;28;20234;-88
2023/12/02 12:19:28;;;;;;;20.77;13.80;;;2.80;99.90;;;;;;5023618;28;20212;-87
2023/12/02 12:21:56;;;;;;;22.73;13.77;;;0.90;99.90;;;;;;5008135;28;20191;-87
2023/12/02 12:24:22;;;;;;;22.93;14.83;;;1.50;99.90;;;;;;5023435;28;20192;-86
2023/12/02 12:26:50;;;;;;;22.57;14.70;;;1.10;99.90;;;;;;5007664;28;20335;-86
2023/12/02 12:29:16;;;;;;;24.83;14.40;;;1.00;99.90;;;;;;5022816;28;20247;-87
2023/12/02 12:31:42;;;;;;;24.97;14.53;;;1.00;99.90;;;;;;5024541;28;20192;-88
2023/12/02 12:34:12;;;;;;;22.47;14.50;;;2.40;99.90;;;;;;5023623;28;20185;-91
2023/12/02 12:36:40;;;;;;;25.07;14.97;;;2.70;99.90;;;;;;5024289;28;20191;-86
2023/12/02 12:39:09;;;;;;;23.50;14.67;;;2.50;99.90;;;;;;5022343;28;20228;-93
2023/12/02 12:41:38;;;;;;;24.27;14.67;;;2.60;99.90;;;;;;5033557;28;20189;-90